• Join FlightAware (Why Join?)
  • Login
  • US Flag 
01:34AM EDT


 

Airport Tracker/Info


-or-


 

Live Flight TrackerFlight Track Log ✈ ASQ5738 ✈ 29-Apr-2013 ✈ KCHS - KIAD

Flight Track Log - Related Links

Times and Time Zones

All times are in EDT time to prevent confusion due to time zone crossing. See the ASQ5738 flight status page for this flight to view local times or setup timezone preferences in your user account.

Time Position Orientation Groundspeed Altitude Reporting Facility
EDT Latitude Longitude Course Direction KTS MPH feet Rate Location/Type
02:31PM 32.9825 -79.9706 17° North 247 284 6,800  Level Jacksonville Center
02:32PM 33.2729 -79.9221 North  Level FlightAware Approximate
02:32PM 33.0614 -79.9556 North 269 310 9,400  Level Jacksonville Center
02:33PM 33.3675 -79.8832 North  Level FlightAware Approximate
02:33PM 33.1308 -79.8936 37° Northeast 289 333 11,500  Level Jacksonville Center
02:34PM 33.4665 -79.8620 13° North  Level FlightAware Approximate
02:34PM 33.2067 -79.8342 33° Northeast 300 345 13,500  Level Jacksonville Center
02:35PM 33.2953 -79.7889 23° Northeast 319 367 15,200 1,800 Climbing Jacksonville Center
02:36PM 33.3883 -79.7556 17° North 338 389 17,200 1,680 Climbing Jacksonville Center
02:37PM 33.4836 -79.7200 17° North 349 402 18,600 1,500 Climbing Jacksonville Center
02:38PM 33.5931 -79.6786 17° North 360 414 20,200 1,500 Climbing Jacksonville Center
02:39PM 33.6942 -79.6375 19° North 366 421 21,700 1,260 Climbing Jacksonville Center
02:40PM 33.7978 -79.6011 16° North 378 435 22,800 1,020 Climbing Jacksonville Center
02:41PM 33.9031 -79.5597 18° North 378 435 23,800 1,020 Climbing Jacksonville Center
02:42PM 34.0083 -79.5206 17° North 384 442 24,900 1,020 Climbing Jacksonville Center
02:43PM 34.1158 -79.4789 18° North 389 448 25,900 660 Climbing Jacksonville Center
02:45PM 34.3242 -79.3967 18° North 405 466 27,000 360 Climbing Washington Center
02:46PM 34.4381 -79.3539 17° North 411 473 27,000  Level Washington Center
02:47PM 34.5522 -79.3089 18° North 417 480 27,000  Level Washington Center
02:48PM 34.6644 -79.3239 354° North 405 466 27,000  Level Washington Center
02:49PM 34.7672 -79.3742 338° Northwest 398 458 27,000  Level Washington Center
02:50PM 34.8697 -79.4272 337° Northwest 393 452 27,000  Level Washington Center
02:51PM 34.9744 -79.4803 337° Northwest 399 459 27,000  Level Washington Center
02:52PM 35.0814 -79.5311 339° North 411 473 27,000  Level Washington Center
02:53PM 35.1881 -79.5819 339° North 411 473 27,000  Level Washington Center
02:54PM 35.2928 -79.6331 338° Northwest 411 473 27,000  Level Washington Center
02:55PM 35.4025 -79.6003 14° North 396 456 27,000  Level Washington Center
02:56PM 35.4528 -79.4628 66° East 347 399 27,000  Level Washington Center
02:57PM 35.4997 -79.3042 70° East 392 451 27,000  Level Washington Center
02:58PM 35.5436 -79.1606 69° East 420 483 27,000  Level Washington Center
02:59PM 35.5950 -79.0431 62° Northeast 432 497 27,000  Level Washington Center
03:00PM 35.7100 -78.9636 29° Northeast 414 476 27,000  Level Washington Center
03:01PM 35.8203 -78.8992 25° Northeast 419 482 27,000  Level Washington Center
03:02PM 35.9328 -78.8344 25° Northeast 425 489 27,000  Level Washington Center
03:03PM 36.0389 -78.7669 27° Northeast 431 496 27,000  Level Washington Center
03:04PM 36.1469 -78.7019 26° Northeast 437 503 27,000  Level Washington Center
03:05PM 36.2594 -78.6317 27° Northeast 431 496 27,000  Level Washington Center
03:06PM 36.3739 -78.5586 27° Northeast 441 507 27,000  Level Washington Center
03:07PM 36.4883 -78.4881 26° Northeast 451 519 27,000  Level Washington Center
03:08PM 36.6089 -78.4150 26° Northeast 462 532 27,000 -420 Level Washington Center
03:09PM 36.7297 -78.3339 28° Northeast 475 547 26,200 -780 Descending Washington Center
03:10PM 36.8567 -78.2578 26° Northeast 486 559 25,500 -720 Descending Washington Center
03:11PM 36.9772 -78.1789 28° Northeast 486 559 24,800 -720 Descending Washington Center
03:12PM 37.0936 -78.1072 26° Northeast 479 551 24,100 -720 Descending Washington Center
03:13PM 37.2097 -78.0328 27° Northeast 467 537 23,400 -720 Descending Washington Center
03:14PM 37.3239 -77.9581 27° Northeast 461 531 22,700 -720 Descending Washington Center
03:15PM 37.4358 -77.8883 26° Northeast 456 525 22,000 -420 Descending Washington Center
03:16PM 37.5456 -77.8183 27° Northeast 451 519 21,900 -1,080 Descending Washington Center
03:17PM 37.6575 -77.7533 25° Northeast 446 513 19,900 -2,040 Descending Washington Center
03:18PM 37.7606 -77.6931 25° Northeast 427 491 17,800 -2,100 Descending Washington Center
03:19PM 37.8575 -77.6353 25° Northeast 397 457 15,800 -2,100 Descending Washington Center
03:20PM 37.9525 -77.5800 25° Northeast 376 433 13,700 -2,100 Descending Washington Center
03:21PM 38.0492 -77.5272 23° Northeast 371 427 11,600 -1,860 Descending Washington Center
03:22PM 38.1397 -77.4714 26° Northeast 366 421 10,000 -840 Descending Washington Center
03:23PM 38.2175 -77.4286 23° Northeast 334 384 10,000 -420 Level Washington Center
03:24PM 38.2950 -77.4039 14° North 302 348 9,200 -1,020 Descending Washington Center
03:25PM 38.3744 -77.3925 North 286 329 8,000 -1,260 Descending Washington Center
03:26PM 38.4497 -77.3839 North 281 323 6,800 -1,260 Descending Washington Center
03:27PM 38.5269 -77.3750 North 276 318 5,600 -900 Descending Washington Center
03:28PM 38.5939 -77.3661 North 264 304 5,000 -600 Descending Washington Center
03:29PM 38.6500 -77.3667 360° North 237 273 4,500 -600 Descending Potomac TRACON
03:30PM 38.7167 -77.3667 360° North 237 273 4,000 -300 Descending Potomac TRACON
03:31PM 38.7833 -77.3500 11° North 243 280 4,000  Level Potomac TRACON
03:32PM 38.8500 -77.3500 360° North 242 278 4,000  Level Potomac TRACON
03:33PM 38.9167 -77.3500 360° North 223 257 4,000  Level Potomac TRACON
03:34PM 38.9833 -77.3500 360° North 227 261 4,000  Level Potomac TRACON
03:35PM 39.0333 -77.3500 360° North 212 244 4,000  Level Potomac TRACON
03:36PM 39.1000 -77.3500 360° North 221 254 4,000 -360 Level Potomac TRACON
03:37PM 39.1500 -77.3500 360° North 196 226 3,400 -540 Descending Potomac TRACON
03:38PM 39.2000 -77.3500 360° North 198 228 3,000 -240 Descending Potomac TRACON
03:39PM 39.2000 -77.4000 270° West 190 219 3,000 -180 Level Potomac TRACON
03:41PM 39.1333 -77.4333 201° Southwest 137 158 2,500 -180 Descending Potomac TRACON
03:42PM 39.1000 -77.4333 180° South 138 159 2,500 -60 Level Potomac TRACON
03:43PM 39.0500 -77.4333 180° South 153 176 2,400 -540 Descending Potomac TRACON
03:44PM 39.0167 -77.4333 180° South 137 158 1,500 -840 Descending Potomac TRACON
03:45PM 38.9833 -77.4333 180° South 143 165 800 -720 Descending Potomac TRACON
03:47PM 38.9474 -77.4599 195° South  Level Estimated